createdAt,value
2019-04-23T00:00:37.563Z,95337.54
2019-04-23T00:06:15.173Z,95333.92
2019-04-23T00:11:39.406Z,95321.13
2019-04-23T00:17:17.963Z,95324.45
2019-04-23T00:22:34.774Z,95322.71
2019-04-23T00:28:21.604Z,95317.59
2019-04-23T00:45:39.813Z,95318.23
2019-04-23T00:50:58.563Z,95319.23
2019-04-23T01:08:38.837Z,95318.30
2019-04-23T01:14:16.299Z,95323.20
2019-04-23T01:25:51.343Z,95326.33
2019-04-23T01:42:29.337Z,95332.75
2019-04-23T01:47:50.086Z,95331.12
2019-04-23T01:53:16.482Z,95325.54
2019-04-23T01:59:24.709Z,95323.88
2019-04-23T02:05:58.875Z,95331.92
2019-04-23T02:12:11.636Z,95324.23
2019-04-23T02:17:25.479Z,95319.75
2019-04-23T02:30:35.213Z,95306.30
2019-04-23T02:40:30.556Z,95306.42
2019-04-23T02:45:59.036Z,95303.80
2019-04-23T03:02:17.594Z,95305.80
2019-04-23T03:12:18.537Z,95298.55
2019-04-23T03:17:59.137Z,95293.13
2019-04-23T03:39:56.667Z,95300.99
2019-04-23T03:46:24.299Z,95305.88
2019-04-23T03:58:06.376Z,95303.26
2019-04-23T04:03:10.128Z,95289.53
2019-04-23T04:14:38.544Z,95298.31
2019-04-23T04:19:09.265Z,95298.74
2019-04-23T04:41:15.896Z,95292.59
2019-04-23T04:57:35.361Z,95297.87
2019-04-23T05:03:01.127Z,95311.98
2019-04-23T05:10:09.313Z,95291.61
2019-04-23T05:19:13.767Z,95295.42
2019-04-23T05:24:14.858Z,95296.41
2019-04-23T05:29:34.145Z,95303.50
2019-04-23T05:34:57.625Z,95282.95
2019-04-23T06:31:40.812Z,95259.79
2019-04-23T06:36:37.130Z,95266.95
2019-04-23T06:46:39.533Z,95253.98
2019-04-23T06:56:26.845Z,95248.81
2019-04-23T07:01:17.693Z,95245.16
2019-04-23T07:11:34.149Z,95251.63
2019-04-23T07:16:09.492Z,95257.41
2019-04-23T07:26:25.742Z,95248.66
2019-04-23T07:31:14.118Z,95242.24
2019-04-23T07:36:19.357Z,95239.83
2019-04-23T07:41:24.981Z,95243.94
2019-04-23T07:46:33.690Z,95242.56
2019-04-23T07:51:19.592Z,95248.19
2019-04-23T07:56:21.378Z,95246.64
2019-04-23T08:01:14.128Z,95249.08
2019-04-23T08:06:13.176Z,95242.73
2019-04-23T08:16:23.338Z,95234.50
2019-04-23T08:21:10.344Z,95232.32
2019-04-23T08:26:35.822Z,95229.17
2019-04-23T08:31:32.271Z,95237.55
2019-04-23T08:36:29.547Z,95229.48
2019-04-23T08:46:46.678Z,95230.58
2019-04-23T08:51:54.760Z,95227.41
2019-04-23T08:56:31.812Z,95231.98
2019-04-23T09:01:41.024Z,95230.66
2019-04-23T09:06:22.208Z,95231.73
2019-04-23T09:11:35.864Z,95230.19
2019-04-23T09:16:28.687Z,95230.81
2019-04-23T09:26:08.900Z,95230.23
2019-04-23T09:36:51.618Z,95225.49
2019-04-23T09:42:02.297Z,95220.63
2019-04-23T09:47:24.563Z,95220.41
2019-04-23T09:52:07.350Z,95223.51
2019-04-23T09:56:57.373Z,95219.49
2019-04-23T10:01:49.945Z,95214.61
2019-04-23T10:06:36.492Z,95216.83
2019-04-23T10:11:28.524Z,95212.72
2019-04-23T10:16:27.659Z,95216.83
2019-04-23T10:21:21.757Z,95206.61
2019-04-23T10:26:17.471Z,95203.08
2019-04-23T10:31:14.532Z,95200.46
2019-04-23T10:36:13.697Z,95201.66
2019-04-23T10:41:09.789Z,95196.56
2019-04-23T10:46:43.006Z,95198.73
2019-04-23T10:51:59.774Z,95191.91
2019-04-23T10:56:56.992Z,95184.67
2019-04-23T11:01:53.043Z,95183.06
2019-04-23T11:06:50.430Z,95186.47
2019-04-23T11:11:53.868Z,95192.71
2019-04-23T11:16:58.160Z,95192.80
2019-04-23T11:21:58.235Z,95182.68
2019-04-23T11:26:49.533Z,95185.99
2019-04-23T11:31:59.019Z,95189.64
2019-04-23T11:41:53.024Z,95185.07
2019-04-23T11:57:07.975Z,95186.98
2019-04-23T12:07:06.235Z,95192.55
2019-04-23T12:17:13.359Z,95199.80
2019-04-23T12:22:02.761Z,95199.92
2019-04-23T12:32:30.904Z,95205.06
2019-04-23T12:37:17.641Z,95212.25
2019-04-23T12:42:27.847Z,95208.39
2019-04-23T12:47:14.470Z,95204.98
2019-04-23T12:52:12.886Z,95203.29
2019-04-23T13:02:11.403Z,95196.27
2019-04-23T13:06:58.335Z,95186.52
2019-04-23T13:12:04.945Z,95183.86
2019-04-23T13:17:05.528Z,95188.31
2019-04-23T13:26:47.232Z,95175.59
2019-04-23T13:31:39.917Z,95176.53
2019-04-23T13:36:46.789Z,95177.20
2019-04-23T13:41:42.095Z,95178.37
2019-04-23T13:46:35.670Z,95164.86
2019-04-23T13:52:02.416Z,95169.93
2019-04-23T13:57:03.233Z,95161.83
2019-04-23T14:01:33.548Z,95156.14
2019-04-23T14:06:36.774Z,95153.22
2019-04-23T14:11:30.856Z,95156.17
2019-04-23T14:16:34.149Z,95154.80
2019-04-23T14:26:33.997Z,95148.95
2019-04-23T14:31:17.463Z,95145.94
2019-04-23T14:36:36.396Z,95147.97
2019-04-23T14:51:22.995Z,95135.84
2019-04-23T15:06:20.147Z,95130.63
2019-04-23T15:11:23.888Z,95126.66
2019-04-23T15:16:20.871Z,95124.52
2019-04-23T15:21:28.355Z,95123.73
2019-04-23T15:27:02.535Z,95115.73
2019-04-23T15:31:17.950Z,95128.14
2019-04-23T15:36:16.096Z,95126.03
2019-04-23T15:41:01.817Z,95125.87
2019-04-23T15:46:02.923Z,95128.31
2019-04-23T15:50:52.437Z,95124.39
2019-04-23T15:55:56.155Z,95121.23
2019-04-23T16:05:52.985Z,95110.98
2019-04-23T16:11:36.459Z,95117.47
2019-04-23T16:16:26.156Z,95111.94
2019-04-23T16:21:20.669Z,95110.24
2019-04-23T16:26:20.538Z,95103.39
2019-04-23T16:31:26.422Z,95108.67
2019-04-23T16:41:12.905Z,95109.14
2019-04-23T16:46:07.128Z,95100.02
2019-04-23T16:51:16.714Z,95103.87
2019-04-23T16:56:13.501Z,95111.28
2019-04-23T17:01:03.368Z,95104.16
2019-04-23T17:11:02.756Z,95101.20
2019-04-23T17:16:02.657Z,95101.58
2019-04-23T17:20:53.050Z,95099.44
2019-04-23T17:25:48.783Z,95109.08
2019-04-23T17:31:03.981Z,95101.87
2019-04-23T17:36:22.398Z,95110.81
2019-04-23T17:41:15.700Z,95110.06
2019-04-23T17:46:05.289Z,95112.83
2019-04-23T17:51:11.035Z,95120.80
2019-04-23T17:56:29.003Z,95114.48
2019-04-23T18:06:21.640Z,95122.59
2019-04-23T18:11:13.056Z,95134.68
2019-04-23T18:16:09.611Z,95137.17
2019-04-23T18:26:23.187Z,95148.17
2019-04-23T18:31:23.434Z,95148.58
2019-04-23T18:36:21.734Z,95149.33
2019-04-23T18:41:10.564Z,95153.91
2019-04-23T18:46:22.931Z,95150.70
2019-04-23T18:51:34.146Z,95164.91
2019-04-23T19:01:12.630Z,95178.98
2019-04-23T19:06:32.525Z,95182.38
2019-04-23T19:17:07.269Z,95189.42
2019-04-23T19:22:09.088Z,95205.41
2019-04-23T19:31:50.647Z,95207.42
2019-04-23T19:41:54.221Z,95209.66
2019-04-23T19:46:48.944Z,95206.71
2019-04-23T19:51:44.279Z,95210.61
2019-04-23T19:56:37.792Z,95210.38
2019-04-23T20:11:27.819Z,95225.33
2019-04-23T20:21:13.500Z,95236.02
2019-04-23T20:26:17.582Z,95234.52
2019-04-23T20:32:57.588Z,95244.81
2019-04-23T20:36:58.083Z,95243.52
2019-04-23T20:42:39.081Z,95257.31
2019-04-23T20:47:48.622Z,95247.16
2019-04-23T20:53:06.562Z,95254.68
2019-04-23T21:27:01.688Z,95287.73
2019-04-23T21:31:55.602Z,95284.78
2019-04-23T21:37:14.169Z,95293.67
2019-04-23T21:42:11.826Z,95304.70
2019-04-23T21:47:01.003Z,95300.11
2019-04-23T21:52:04.972Z,95299.23
2019-04-23T21:56:55.333Z,95300.94
2019-04-23T22:01:53.776Z,95313.84
2019-04-23T22:06:54.069Z,95317.38
2019-04-23T22:16:57.970Z,95328.31
2019-04-23T22:21:50.229Z,95334.69
2019-04-23T22:36:49.746Z,95326.13
2019-04-23T22:56:35.539Z,95338.47
2019-04-23T23:01:56.939Z,95341.47
2019-04-23T23:06:46.605Z,95352.03
2019-04-23T23:11:22.498Z,95351.63
2019-04-23T23:21:24.189Z,95354.77
2019-04-23T23:26:20.305Z,95372.67
2019-04-23T23:36:24.472Z,95367.95
2019-04-23T23:56:12.472Z,95388.13
